createdAt,value
2022-12-14T00:02:10.787Z,0.18
2022-12-14T00:04:39.148Z,0.06
2022-12-14T00:07:07.497Z,0.02
2022-12-14T00:09:36.515Z,0.38
2022-12-14T00:12:05.487Z,0.72
2022-12-14T00:14:34.174Z,1.01
2022-12-14T00:17:02.391Z,1.26
2022-12-14T00:19:30.641Z,1.46
2022-12-14T00:21:58.929Z,1.61
2022-12-14T00:24:27.153Z,1.72
2022-12-14T00:26:55.524Z,1.71
2022-12-14T00:29:23.787Z,1.39
2022-12-14T00:31:52.147Z,1.00
2022-12-14T00:34:20.499Z,0.67
2022-12-14T00:36:48.783Z,0.38
2022-12-14T00:39:17.228Z,0.13
2022-12-14T00:41:45.531Z,-0.08
2022-12-14T00:44:13.842Z,-0.24
2022-12-14T00:46:42.248Z,-0.38
2022-12-14T00:49:11.191Z,-0.44
2022-12-14T00:51:39.514Z,-0.18
2022-12-14T00:54:07.768Z,0.20
2022-12-14T00:56:36.287Z,0.49
2022-12-14T00:59:04.644Z,0.70
2022-12-14T01:01:33.091Z,0.82
2022-12-14T01:04:21.715Z,0.93
2022-12-14T01:06:52.026Z,1.06
2022-12-14T01:09:22.120Z,1.10
2022-12-14T01:11:50.666Z,0.82
2022-12-14T01:14:21.154Z,0.45
2022-12-14T01:16:49.454Z,0.16
2022-12-14T01:19:17.784Z,-0.13
2022-12-14T01:21:46.276Z,-0.36
2022-12-14T01:24:14.482Z,-0.53
2022-12-14T01:26:42.826Z,-0.67
2022-12-14T01:29:12.060Z,-0.83
2022-12-14T01:31:40.403Z,-0.98
2022-12-14T01:34:09.950Z,-1.13
2022-12-14T01:36:39.555Z,-1.25
2022-12-14T01:39:13.879Z,-1.33
2022-12-14T01:41:52.996Z,-1.31
2022-12-14T01:44:21.347Z,-0.82
2022-12-14T01:47:22.823Z,-0.42
2022-12-14T01:50:05.401Z,-0.04
2022-12-14T01:52:36.499Z,0.22
2022-12-14T01:55:11.213Z,0.45
2022-12-14T01:57:47.058Z,0.62
2022-12-14T02:00:17.145Z,0.72
2022-12-14T02:02:54.818Z,0.75
2022-12-14T02:05:25.158Z,0.36
2022-12-14T02:07:56.619Z,-0.09
2022-12-14T02:10:27.878Z,-0.43
2022-12-14T02:13:05.803Z,-0.69
2022-12-14T02:15:35.177Z,-0.90
2022-12-14T02:18:06.126Z,-1.10
2022-12-14T02:21:09.731Z,-1.28
2022-12-14T02:23:47.358Z,-1.45
2022-12-14T02:26:21.375Z,-1.60
2022-12-14T02:29:02.010Z,-1.75
2022-12-14T02:31:33.383Z,-1.94
2022-12-14T02:34:34.055Z,-2.09
2022-12-14T02:37:11.303Z,-2.02
2022-12-14T02:40:00.920Z,-1.40
2022-12-14T02:43:08.162Z,-0.91
2022-12-14T02:45:50.726Z,-0.64
2022-12-14T02:48:23.067Z,-0.44
2022-12-14T02:50:57.409Z,-0.32
2022-12-14T02:53:39.325Z,-0.18
2022-12-14T02:56:13.233Z,-0.09
2022-12-14T02:58:51.156Z,0.00
2022-12-14T03:01:28.287Z,-0.02
2022-12-14T03:03:56.721Z,-0.44
2022-12-14T03:06:28.669Z,-0.89
2022-12-14T03:09:04.963Z,-1.27
2022-12-14T03:11:51.550Z,-1.57
2022-12-14T03:14:27.460Z,-1.85
2022-12-14T03:17:02.013Z,-2.11
2022-12-14T03:19:38.223Z,-2.33
2022-12-14T03:22:15.336Z,-2.54
2022-12-14T03:24:49.150Z,-2.70
2022-12-14T03:27:25.503Z,-2.71
2022-12-14T03:30:00.838Z,-2.13
2022-12-14T03:32:33.382Z,-1.62
2022-12-14T03:35:06.971Z,-1.29
2022-12-14T03:38:02.659Z,-1.00
2022-12-14T03:40:37.363Z,-0.66
2022-12-14T03:43:18.743Z,-0.48
2022-12-14T03:46:10.254Z,-0.40
2022-12-14T03:48:50.131Z,-0.37
2022-12-14T03:51:38.044Z,-0.85
2022-12-14T03:54:17.159Z,-1.44
2022-12-14T03:57:20.847Z,-1.83
2022-12-14T04:00:00.753Z,-2.14
2022-12-14T04:02:42.786Z,-2.36
2022-12-14T04:05:30.581Z,-2.56
2022-12-14T04:08:11.632Z,-2.72
2022-12-14T04:11:04.095Z,-2.89
2022-12-14T04:13:57.201Z,-3.05
2022-12-14T04:16:50.009Z,-3.16
2022-12-14T04:19:29.426Z,-3.23
2022-12-14T04:22:05.240Z,-3.30
2022-12-14T04:24:58.945Z,-3.37
2022-12-14T04:27:42.790Z,-2.96
2022-12-14T04:30:13.591Z,-0.75
2022-12-14T04:32:48.923Z,0.88
2022-12-14T04:35:26.239Z,1.46
2022-12-14T04:38:08.280Z,1.63
2022-12-14T04:40:47.622Z,0.91
2022-12-14T04:43:21.823Z,0.12
2022-12-14T04:46:01.336Z,-0.43
2022-12-14T04:48:36.279Z,-0.86
2022-12-14T04:51:23.636Z,-1.22
2022-12-14T04:53:59.886Z,-1.52
2022-12-14T04:56:53.913Z,-1.81
2022-12-14T04:59:23.875Z,-2.02
2022-12-14T05:02:15.531Z,-2.21
2022-12-14T05:04:59.353Z,-2.43
2022-12-14T05:07:38.360Z,-2.60
2022-12-14T05:10:11.139Z,-2.78
2022-12-14T05:12:47.607Z,-2.92
2022-12-14T05:15:24.938Z,-3.06
2022-12-14T05:17:53.786Z,-3.17
2022-12-14T05:20:24.648Z,-3.26
2022-12-14T05:22:53.095Z,-3.34
2022-12-14T05:25:21.324Z,-3.40
2022-12-14T05:27:49.610Z,-3.45
2022-12-14T05:30:18.041Z,-3.50
2022-12-14T05:32:46.632Z,-3.54
2022-12-14T05:35:15.731Z,-3.58
2022-12-14T05:37:44.304Z,-3.62
2022-12-14T05:40:12.984Z,-3.66
2022-12-14T05:42:45.360Z,-3.70
2022-12-14T05:45:16.385Z,-3.74
2022-12-14T05:47:45.299Z,-3.45
2022-12-14T05:50:13.546Z,-1.50
2022-12-14T05:52:41.787Z,0.11
2022-12-14T05:55:10.116Z,0.71
2022-12-14T05:57:38.608Z,1.10
2022-12-14T06:00:07.713Z,1.29
2022-12-14T06:02:36.065Z,0.69
2022-12-14T06:05:04.958Z,-0.03
2022-12-14T06:07:33.287Z,-0.63
2022-12-14T06:10:01.544Z,-1.09
2022-12-14T06:12:30.573Z,-1.48
2022-12-14T06:14:59.000Z,-1.80
2022-12-14T06:17:27.279Z,-2.07
2022-12-14T06:19:55.544Z,-2.30
2022-12-14T06:22:24.975Z,-2.52
2022-12-14T06:24:53.246Z,-2.74
2022-12-14T06:27:21.511Z,-2.93
2022-12-14T06:29:49.863Z,-3.11
2022-12-14T06:32:18.353Z,-3.27
2022-12-14T06:34:47.038Z,-3.41
2022-12-14T06:37:15.378Z,-3.56
2022-12-14T06:39:43.722Z,-3.69
2022-12-14T06:42:11.995Z,-3.81
2022-12-14T06:44:40.381Z,-3.91
2022-12-14T06:47:09.044Z,-4.00
2022-12-14T06:49:37.398Z,-4.10
2022-12-14T06:52:05.708Z,-4.20
2022-12-14T06:54:34.158Z,-4.29
2022-12-14T06:57:02.536Z,-4.36
2022-12-14T06:59:30.767Z,-4.42
2022-12-14T07:01:59.334Z,-4.50
2022-12-14T07:04:28.091Z,-4.57
2022-12-14T07:06:56.624Z,-4.26
2022-12-14T07:09:25.120Z,-2.30
2022-12-14T07:11:53.503Z,-0.55
2022-12-14T07:14:21.901Z,0.43
2022-12-14T07:16:50.306Z,0.66
2022-12-14T07:19:18.914Z,-0.07
2022-12-14T07:21:47.218Z,-1.02
2022-12-14T07:24:16.427Z,-1.69
2022-12-14T07:26:44.808Z,-2.17
2022-12-14T07:29:15.095Z,-2.53
2022-12-14T07:31:43.936Z,-2.82
2022-12-14T07:34:18.157Z,-3.10
2022-12-14T07:36:50.846Z,-3.34
2022-12-14T07:39:20.922Z,-3.55
2022-12-14T07:41:50.750Z,-3.73
2022-12-14T07:44:22.390Z,-3.86
2022-12-14T07:46:51.074Z,-4.00
2022-12-14T07:49:19.422Z,-4.13
2022-12-14T07:51:47.797Z,-4.20
2022-12-14T07:54:16.109Z,-4.27
2022-12-14T07:56:44.699Z,-3.98
2022-12-14T07:59:15.968Z,-2.12
2022-12-14T08:01:45.122Z,-0.24
2022-12-14T08:04:16.775Z,0.63
2022-12-14T08:06:47.037Z,0.91
2022-12-14T08:09:16.721Z,0.27
2022-12-14T08:11:45.249Z,-0.46
2022-12-14T08:14:17.467Z,-1.02
2022-12-14T08:16:47.329Z,-1.47
2022-12-14T08:19:16.969Z,-1.82
2022-12-14T08:21:45.965Z,-2.09
2022-12-14T08:24:15.382Z,-2.32
2022-12-14T08:26:47.284Z,-2.52
2022-12-14T08:29:19.277Z,-2.73
2022-12-14T08:31:47.979Z,-2.91
2022-12-14T08:34:22.959Z,-3.06
2022-12-14T08:36:51.449Z,-3.14
2022-12-14T08:39:19.823Z,-3.18
2022-12-14T08:41:48.137Z,-3.18
2022-12-14T08:44:17.587Z,-3.18
2022-12-14T08:46:46.165Z,-3.14
2022-12-14T08:49:14.524Z,-3.08
2022-12-14T08:51:42.911Z,-2.99
2022-12-14T08:54:11.414Z,-2.57
2022-12-14T08:56:39.879Z,-1.05
2022-12-14T08:59:08.410Z,0.26
2022-12-14T09:01:37.316Z,0.91
2022-12-14T09:04:08.069Z,0.59
2022-12-14T09:06:39.339Z,0.05
2022-12-14T09:09:15.638Z,-0.35
2022-12-14T09:11:45.338Z,-0.63
2022-12-14T09:14:13.956Z,-0.84
2022-12-14T09:16:42.511Z,-0.97
2022-12-14T09:19:10.954Z,-1.00
2022-12-14T09:21:40.030Z,-0.99
2022-12-14T09:24:09.759Z,-0.98
2022-12-14T09:26:38.072Z,-0.97
2022-12-14T09:29:06.497Z,-0.95
2022-12-14T09:31:35.000Z,-0.95
2022-12-14T09:34:04.133Z,-0.88
2022-12-14T09:36:32.834Z,-0.83
2022-12-14T09:39:01.251Z,-0.82
2022-12-14T09:41:35.716Z,-0.74
2022-12-14T09:44:25.794Z,-0.64
2022-12-14T09:47:11.080Z,-0.56
2022-12-14T09:49:48.945Z,-0.53
2022-12-14T09:52:22.942Z,-0.54
2022-12-14T09:54:52.553Z,-0.51
2022-12-14T09:57:38.212Z,-0.44
2022-12-14T10:00:20.068Z,-0.40
2022-12-14T10:03:07.152Z,-0.37
2022-12-14T10:05:53.907Z,-0.35
2022-12-14T10:08:31.973Z,-0.35
2022-12-14T10:11:16.219Z,-0.35
2022-12-14T10:14:23.045Z,-0.27
2022-12-14T10:17:12.369Z,-0.20
2022-12-14T10:19:51.791Z,-0.16
2022-12-14T10:22:24.151Z,-0.17
2022-12-14T10:25:00.105Z,-0.24
2022-12-14T10:27:53.947Z,-0.29
2022-12-14T10:30:24.028Z,-0.28
2022-12-14T10:33:01.432Z,-0.23
2022-12-14T10:35:53.739Z,-0.33
2022-12-14T10:38:29.704Z,-0.31
2022-12-14T10:41:07.488Z,-0.33
2022-12-14T10:43:54.242Z,-0.41
2022-12-14T10:46:28.826Z,-0.60
2022-12-14T10:49:22.396Z,-0.81
2022-12-14T10:52:02.660Z,-1.13
2022-12-14T10:54:39.095Z,-1.36
2022-12-14T10:57:07.717Z,-1.50
2022-12-14T10:59:43.818Z,-1.64
2022-12-14T11:02:22.915Z,-1.79
2022-12-14T11:04:52.796Z,-1.87
2022-12-14T11:07:43.605Z,-1.96
2022-12-14T11:10:20.109Z,-2.01
2022-12-14T11:13:07.697Z,-1.97
2022-12-14T11:15:45.461Z,-1.97
2022-12-14T11:18:17.037Z,-1.92
2022-12-14T11:20:53.209Z,-1.77
2022-12-14T11:23:29.361Z,-1.68
2022-12-14T11:26:00.818Z,-1.64
2022-12-14T11:28:41.575Z,-1.57
2022-12-14T11:31:28.253Z,-1.52
2022-12-14T11:33:59.083Z,-1.40
2022-12-14T11:36:39.069Z,-1.33
2022-12-14T11:39:22.192Z,-1.31
2022-12-14T11:42:04.389Z,-1.35
2022-12-14T11:44:36.336Z,-1.36
2022-12-14T11:47:14.251Z,-1.46
2022-12-14T11:49:42.408Z,-1.56
2022-12-14T11:52:15.564Z,-1.52
2022-12-14T11:54:54.309Z,-1.33
2022-12-14T11:57:34.173Z,-1.10
2022-12-14T12:00:23.911Z,-0.90
2022-12-14T12:03:06.646Z,-0.87
2022-12-14T12:05:41.200Z,-0.86
2022-12-14T12:08:32.183Z,-0.77
2022-12-14T12:11:04.418Z,-0.55
2022-12-14T12:13:40.116Z,-0.31
2022-12-14T12:16:23.127Z,-0.07
2022-12-14T12:19:12.049Z,0.16
2022-12-14T12:21:43.891Z,0.45
2022-12-14T12:24:26.437Z,0.80
2022-12-14T12:27:00.913Z,1.21
2022-12-14T12:29:38.192Z,1.72
2022-12-14T12:32:31.165Z,2.48
2022-12-14T12:35:11.874Z,3.46
2022-12-14T12:37:53.156Z,4.25
2022-12-14T12:40:40.509Z,4.84
2022-12-14T12:43:19.269Z,4.97
2022-12-14T12:46:00.187Z,4.80
2022-12-14T12:48:51.564Z,4.42
2022-12-14T12:51:25.405Z,3.80
2022-12-14T12:54:01.751Z,3.32
2022-12-14T12:56:43.716Z,2.83
2022-12-14T12:59:38.543Z,2.28
2022-12-14T13:02:28.995Z,1.72
2022-12-14T13:05:16.625Z,1.23
2022-12-14T13:07:55.770Z,0.72
2022-12-14T13:10:26.107Z,0.35
2022-12-14T13:13:09.969Z,-0.04
2022-12-14T13:15:43.481Z,-0.42
2022-12-14T13:18:33.858Z,-0.65
2022-12-14T13:21:13.164Z,-0.95
2022-12-14T13:23:45.538Z,-1.30
2022-12-14T13:26:57.167Z,-1.60
2022-12-14T13:29:56.288Z,-1.81
2022-12-14T13:32:40.993Z,-1.97
2022-12-14T13:35:27.616Z,-2.13
2022-12-14T13:38:17.731Z,-2.28
2022-12-14T13:41:14.186Z,-2.42
2022-12-14T13:44:35.908Z,-2.60
2022-12-14T13:47:15.624Z,-2.72
2022-12-14T13:52:50.038Z,-2.84
2022-12-14T13:55:28.246Z,-2.92
2022-12-14T13:58:34.467Z,-3.01
2022-12-14T14:01:07.461Z,-3.14
2022-12-14T14:03:35.957Z,-3.22
2022-12-14T14:06:23.303Z,-2.91
2022-12-14T14:08:53.002Z,-0.89
2022-12-14T14:11:40.003Z,0.45
2022-12-14T14:14:17.281Z,0.64
2022-12-14T14:16:51.281Z,0.03
2022-12-14T14:19:25.533Z,-0.64
2022-12-14T14:22:26.534Z,-1.18
2022-12-14T14:24:58.644Z,-1.67
2022-12-14T14:27:39.615Z,-1.96
2022-12-14T14:30:30.115Z,-2.21
2022-12-14T14:33:35.760Z,-2.52
2022-12-14T14:35:49.796Z,-2.77
2022-12-14T14:38:32.581Z,-2.95
2022-12-14T14:41:18.821Z,-3.13
2022-12-14T14:43:51.765Z,-3.29
2022-12-14T14:46:23.323Z,-3.42
2022-12-14T14:48:54.605Z,-3.21
2022-12-14T14:51:32.912Z,-1.77
2022-12-14T14:57:35.388Z,0.60
2022-12-14T15:00:06.446Z,1.69
2022-12-14T15:02:42.146Z,1.48
2022-12-14T15:08:39.527Z,-0.60
2022-12-14T15:11:20.781Z,-1.32
2022-12-14T15:13:57.740Z,-1.81
2022-12-14T15:16:41.050Z,-2.18
2022-12-14T15:19:21.422Z,-2.49
2022-12-14T15:22:15.111Z,-2.80
2022-12-14T15:24:45.712Z,-3.08
2022-12-14T15:27:30.334Z,-3.29
2022-12-14T15:30:10.849Z,-3.49
2022-12-14T15:32:47.592Z,-3.15
2022-12-14T15:35:25.342Z,-1.19
2022-12-14T15:38:00.228Z,-0.11
2022-12-14T15:40:31.092Z,-0.47
2022-12-14T15:43:16.168Z,-1.23
2022-12-14T15:45:48.892Z,-1.89
2022-12-14T15:48:34.467Z,-2.31
2022-12-14T15:51:17.097Z,-2.72
2022-12-14T15:53:49.940Z,-3.08
2022-12-14T15:56:22.182Z,-3.33
2022-12-14T15:58:52.591Z,-3.56
2022-12-14T16:01:36.303Z,-3.77
2022-12-14T16:04:10.182Z,-3.53
2022-12-14T16:07:08.103Z,-2.32
2022-12-14T16:09:44.333Z,-1.41
2022-12-14T16:12:44.185Z,-0.78
2022-12-14T16:15:24.484Z,-0.91
2022-12-14T16:18:02.154Z,-1.66
2022-12-14T16:20:38.307Z,-2.28
2022-12-14T16:23:29.064Z,-2.74
2022-12-14T16:26:17.944Z,-3.19
2022-12-14T16:28:48.330Z,-3.50
2022-12-14T16:31:22.580Z,-3.34
2022-12-14T16:34:18.994Z,-1.40
2022-12-14T16:37:14.540Z,0.13
2022-12-14T16:39:40.080Z,0.23
2022-12-14T16:42:19.747Z,-0.56
2022-12-14T16:44:49.241Z,-1.46
2022-12-14T16:47:26.318Z,-2.14
2022-12-14T16:50:01.836Z,-2.66
2022-12-14T16:52:32.755Z,-3.09
2022-12-14T16:55:15.426Z,-3.37
2022-12-14T16:58:02.018Z,-3.11
2022-12-14T17:00:34.940Z,-0.99
2022-12-14T17:03:07.916Z,0.31
2022-12-14T17:05:42.070Z,0.50
2022-12-14T17:08:11.979Z,-0.28
2022-12-14T17:10:40.301Z,-1.17
2022-12-14T17:13:09.584Z,-1.84
2022-12-14T17:16:01.196Z,-2.34
2022-12-14T17:18:38.413Z,-2.76
2022-12-14T17:21:11.567Z,-3.12
2022-12-14T17:23:42.883Z,-3.42
2022-12-14T17:26:21.028Z,-3.15
2022-12-14T17:28:50.443Z,-1.14
2022-12-14T17:31:25.727Z,0.26
2022-12-14T17:33:57.173Z,-0.18
2022-12-14T17:36:25.818Z,-1.22
2022-12-14T17:38:54.515Z,-1.96
2022-12-14T17:41:27.092Z,-2.52
2022-12-14T17:43:57.268Z,-2.96
2022-12-14T17:46:26.197Z,-3.23
2022-12-14T17:48:55.325Z,-3.45
2022-12-14T17:51:30.390Z,-2.87
2022-12-14T17:54:00.530Z,-0.76
2022-12-14T17:56:30.141Z,0.64
2022-12-14T17:58:58.660Z,0.93
2022-12-14T18:01:28.061Z,0.18
2022-12-14T18:03:57.634Z,-0.79
2022-12-14T18:06:26.380Z,-1.45
2022-12-14T18:08:54.692Z,-1.99
2022-12-14T18:11:24.677Z,-2.42
2022-12-14T18:13:54.195Z,-2.78
2022-12-14T18:16:24.805Z,-3.12
2022-12-14T18:18:55.133Z,-3.41
2022-12-14T18:21:29.530Z,-3.65
2022-12-14T18:23:58.567Z,-3.41
2022-12-14T18:26:27.581Z,-1.56
2022-12-14T18:28:58.259Z,-0.09
2022-12-14T18:31:38.296Z,0.18
2022-12-14T18:34:06.872Z,-0.70
2022-12-14T18:36:35.480Z,-1.53
2022-12-14T18:39:04.735Z,-2.19
2022-12-14T18:41:33.898Z,-2.70
2022-12-14T18:44:02.981Z,-3.09
2022-12-14T18:46:31.684Z,-3.41
2022-12-14T18:49:01.135Z,-3.31
2022-12-14T18:51:30.456Z,-1.49
2022-12-14T18:54:00.517Z,-0.25
2022-12-14T18:56:29.691Z,0.18
2022-12-14T18:59:00.541Z,0.29
2022-12-14T19:01:29.181Z,-0.33
2022-12-14T19:03:57.827Z,-1.01
2022-12-14T19:09:15.535Z,-2.12
2022-12-14T19:11:44.634Z,-2.48
2022-12-14T19:14:13.298Z,-2.79
2022-12-14T19:16:41.741Z,-3.07
2022-12-14T19:19:10.068Z,-3.28
2022-12-14T19:21:38.360Z,-3.46
2022-12-14T19:24:08.742Z,-3.64
2022-12-14T19:26:39.144Z,-3.82
2022-12-14T19:29:07.689Z,-3.95
2022-12-14T19:31:36.306Z,-3.06
2022-12-14T19:34:04.932Z,-0.90
2022-12-14T19:36:33.645Z,0.58
2022-12-14T19:39:02.906Z,0.99
2022-12-14T19:41:31.378Z,0.13
2022-12-14T19:43:59.911Z,-0.87
2022-12-14T19:46:28.283Z,-1.61
2022-12-14T19:48:57.652Z,-2.15
2022-12-14T19:51:26.118Z,-2.64
2022-12-14T19:53:54.821Z,-3.09
2022-12-14T19:56:23.283Z,-3.48
2022-12-14T19:58:51.787Z,-3.82
2022-12-14T20:01:20.339Z,-4.12
2022-12-14T20:03:49.585Z,-3.89
2022-12-14T20:06:18.066Z,-2.02
2022-12-14T20:08:49.365Z,-0.43
2022-12-14T20:11:18.121Z,0.34
2022-12-14T20:13:47.679Z,-0.43
2022-12-14T20:16:19.097Z,-1.47
2022-12-14T20:18:48.159Z,-2.33
2022-12-14T20:21:22.207Z,-3.00
2022-12-14T20:23:51.417Z,-3.52
2022-12-14T20:26:21.689Z,-3.91
2022-12-14T20:28:53.407Z,-4.24
2022-12-14T20:31:22.971Z,-4.02
2022-12-14T20:33:52.325Z,-2.47
2022-12-14T20:37:12.334Z,-1.82
2022-12-14T20:39:40.822Z,-2.56
2022-12-14T20:42:09.136Z,-3.32
2022-12-14T20:44:37.634Z,-3.92
2022-12-14T20:47:06.488Z,-4.34
2022-12-14T20:49:34.915Z,-4.61
2022-12-14T20:52:03.375Z,-3.68
2022-12-14T20:54:32.176Z,-1.86
2022-12-14T20:57:00.507Z,-0.45
2022-12-14T20:59:28.979Z,0.57
2022-12-14T21:01:57.565Z,1.26
2022-12-14T21:04:26.526Z,1.62
2022-12-14T21:06:54.967Z,1.95
2022-12-14T21:09:23.318Z,2.22
2022-12-14T21:12:10.685Z,2.44
2022-12-14T21:14:48.012Z,2.24
2022-12-14T21:17:16.828Z,2.17
2022-12-14T21:19:45.322Z,2.22
2022-12-14T21:22:22.803Z,2.34
2022-12-14T21:25:07.633Z,2.48
2022-12-14T21:27:38.761Z,2.60
2022-12-14T21:30:10.269Z,3.01
2022-12-14T21:32:39.031Z,3.35
2022-12-14T21:35:07.746Z,3.50
2022-12-14T21:37:38.153Z,3.60
2022-12-14T21:40:07.364Z,3.79
2022-12-14T21:42:35.683Z,4.00
2022-12-14T21:45:04.988Z,4.19
2022-12-14T21:47:33.874Z,4.46
2022-12-14T21:50:02.318Z,4.65
2022-12-14T21:52:30.973Z,4.57
2022-12-14T21:54:59.995Z,4.26
2022-12-14T21:57:50.244Z,4.07
2022-12-14T22:00:19.815Z,3.66
2022-12-14T22:02:48.631Z,3.59
2022-12-14T22:05:17.661Z,3.86
2022-12-14T22:07:46.969Z,4.29
2022-12-14T22:10:17.741Z,4.36
2022-12-14T22:12:49.727Z,4.38
2022-12-14T22:15:18.158Z,4.13
2022-12-14T22:17:46.449Z,3.74
2022-12-14T22:20:14.928Z,3.47
2022-12-14T22:22:43.610Z,3.30
2022-12-14T22:25:11.933Z,3.17
2022-12-14T22:27:40.349Z,3.11
2022-12-14T22:30:09.527Z,3.10
2022-12-14T22:32:37.804Z,3.09
2022-12-14T22:35:06.453Z,2.99
2022-12-14T22:37:35.064Z,2.90
2022-12-14T22:40:04.401Z,2.75
2022-12-14T22:42:34.195Z,2.65
2022-12-14T22:45:02.878Z,2.68
2022-12-14T22:47:31.329Z,2.77
2022-12-14T22:49:59.591Z,2.80
2022-12-14T22:52:28.099Z,2.87
2022-12-14T22:54:56.604Z,2.87
2022-12-14T22:57:25.376Z,2.88
2022-12-14T23:00:00.774Z,2.98
2022-12-14T23:02:31.086Z,3.52
2022-12-14T23:04:59.606Z,4.23
2022-12-14T23:07:27.977Z,4.68
2022-12-14T23:10:15.794Z,4.99
2022-12-14T23:13:03.400Z,5.18
2022-12-14T23:15:50.551Z,4.95
2022-12-14T23:18:37.959Z,3.63
2022-12-14T23:21:29.536Z,2.30
2022-12-14T23:24:16.676Z,1.18
2022-12-14T23:27:09.119Z,0.33
2022-12-14T23:29:56.737Z,-0.36
2022-12-14T23:32:43.588Z,-0.94
2022-12-14T23:35:30.673Z,-1.47
2022-12-14T23:38:25.348Z,-1.95
2022-12-14T23:41:17.944Z,-2.36
2022-12-14T23:44:05.082Z,-2.71
2022-12-14T23:57:28.042Z,-4.07
